createdAt,value
2022-09-23T00:01:07.528Z,89.47
2022-09-23T00:03:35.975Z,89.92
2022-09-23T00:06:10.779Z,90.15
2022-09-23T00:08:38.268Z,89.63
2022-09-23T00:11:17.991Z,89.51
2022-09-23T00:13:47.031Z,88.98
2022-09-23T00:16:17.190Z,88.79
2022-09-23T00:18:44.346Z,89.48
2022-09-23T00:21:13.654Z,89.55
2022-09-23T00:23:42.857Z,89.74
2022-09-23T00:26:12.280Z,89.44
2022-09-23T00:28:39.169Z,88.34
2022-09-23T00:31:09.429Z,88.98
2022-09-23T00:33:36.232Z,88.86
2022-09-23T00:36:05.724Z,89.19
2022-09-23T00:38:34.058Z,88.88
2022-09-23T00:41:00.885Z,88.95
2022-09-23T00:43:37.923Z,88.57
2022-09-23T00:46:07.851Z,88.69
2022-09-23T00:48:37.152Z,88.54
2022-09-23T00:51:07.703Z,88.70
2022-09-23T00:53:34.683Z,88.56
2022-09-23T00:56:04.482Z,88.54
2022-09-23T00:58:34.231Z,88.99
2022-09-23T01:01:02.527Z,88.73
2022-09-23T01:03:29.645Z,88.86
2022-09-23T01:05:57.268Z,88.75
2022-09-23T01:08:25.268Z,88.52
2022-09-23T01:11:17.398Z,88.87
2022-09-23T01:13:47.031Z,88.81
2022-09-23T01:16:51.147Z,89.26
2022-09-23T01:19:57.076Z,89.24
2022-09-23T01:22:32.357Z,89.45
2022-09-23T01:25:37.543Z,89.13
2022-09-23T01:28:13.210Z,88.46
2022-09-23T01:30:52.071Z,89.56
2022-09-23T01:33:30.621Z,89.42
2022-09-23T01:36:23.406Z,89.42
2022-09-23T01:38:59.140Z,88.98
2022-09-23T01:41:43.979Z,89.04
2022-09-23T01:44:34.343Z,88.67
2022-09-23T01:47:14.201Z,88.89
2022-09-23T01:50:03.409Z,88.97
2022-09-23T01:52:34.190Z,88.34
2022-09-23T01:55:16.214Z,88.16
2022-09-23T01:58:07.347Z,87.41
2022-09-23T02:00:40.806Z,87.60
2022-09-23T02:03:17.205Z,87.62
2022-09-23T02:05:56.997Z,87.18
2022-09-23T02:08:31.933Z,87.59
2022-09-23T02:11:18.141Z,87.26
2022-09-23T02:13:54.897Z,86.77
2022-09-23T02:16:34.106Z,86.94
2022-09-23T02:19:16.071Z,86.60
2022-09-23T02:21:58.945Z,86.73
2022-09-23T02:24:30.225Z,87.14
2022-09-23T02:27:06.692Z,86.77
2022-09-23T02:29:42.524Z,86.50
2022-09-23T02:32:53.762Z,87.26
2022-09-23T02:35:44.698Z,87.38
2022-09-23T02:38:31.963Z,86.37
2022-09-23T02:41:17.807Z,87.38
2022-09-23T02:43:50.386Z,86.67
2022-09-23T02:46:17.797Z,86.67
2022-09-23T02:48:50.635Z,86.60
2022-09-23T02:51:17.448Z,86.79
2022-09-23T02:53:45.834Z,86.24
2022-09-23T02:56:19.131Z,86.54
2022-09-23T02:58:48.342Z,86.86
2022-09-23T03:01:49.382Z,87.13
2022-09-23T03:04:28.068Z,86.73
2022-09-23T03:07:02.965Z,86.96
2022-09-23T03:09:43.249Z,86.21
2022-09-23T03:12:36.172Z,86.27
2022-09-23T03:15:22.578Z,87.00
2022-09-23T03:18:09.788Z,86.47
2022-09-23T03:20:44.750Z,86.32
2022-09-23T03:23:15.282Z,86.98
2022-09-23T03:25:45.833Z,87.10
2022-09-23T03:28:14.865Z,86.84
2022-09-23T03:30:43.561Z,86.12
2022-09-23T03:33:15.581Z,85.79
2022-09-23T03:36:10.365Z,85.49
2022-09-23T03:38:42.848Z,86.12
2022-09-23T03:41:16.695Z,85.70
2022-09-23T03:43:45.658Z,85.91
2022-09-23T03:46:12.930Z,85.18
2022-09-23T03:48:40.768Z,85.06
2022-09-23T03:51:24.151Z,85.32
2022-09-23T03:53:51.258Z,85.10
2022-09-23T03:56:18.058Z,85.07
2022-09-23T03:58:46.515Z,84.06
2022-09-23T04:01:14.774Z,83.81
2022-09-23T04:03:41.792Z,84.58
2022-09-23T04:06:08.499Z,83.36
2022-09-23T04:08:35.254Z,83.44
2022-09-23T04:11:04.689Z,83.21
2022-09-23T04:13:31.990Z,82.97
2022-09-23T04:15:58.764Z,83.44
2022-09-23T04:18:25.702Z,83.39
2022-09-23T04:20:56.762Z,83.47
2022-09-23T04:23:25.076Z,83.31
2022-09-23T04:25:51.757Z,83.51
2022-09-23T04:28:18.497Z,83.52
2022-09-23T04:30:46.181Z,83.79
2022-09-23T04:33:14.285Z,83.46
2022-09-23T04:35:42.971Z,83.16
2022-09-23T04:38:11.994Z,83.69
2022-09-23T04:40:39.260Z,83.47
2022-09-23T04:43:07.191Z,83.42
2022-09-23T04:45:36.799Z,83.00
2022-09-23T04:48:04.143Z,83.64
2022-09-23T04:50:33.824Z,83.03
2022-09-23T04:53:00.699Z,82.43
2022-09-23T04:55:27.488Z,82.87
2022-09-23T04:57:54.679Z,83.23
2022-09-23T05:00:23.241Z,82.61
2022-09-23T05:02:50.657Z,82.97
2022-09-23T05:05:23.652Z,82.91
2022-09-23T05:07:51.270Z,82.84
2022-09-23T05:10:18.300Z,83.41
2022-09-23T05:12:45.160Z,83.61
2022-09-23T05:15:13.137Z,84.34
2022-09-23T05:17:39.828Z,83.45
2022-09-23T05:20:07.143Z,83.80
2022-09-23T05:22:33.803Z,83.83
2022-09-23T05:25:01.643Z,83.38
2022-09-23T05:27:28.992Z,83.48
2022-09-23T05:29:55.712Z,83.74
2022-09-23T05:32:22.715Z,83.92
2022-09-23T05:34:49.496Z,84.51
2022-09-23T05:37:16.229Z,84.27
2022-09-23T05:39:42.928Z,84.22
2022-09-23T05:42:09.967Z,83.87
2022-09-23T05:44:36.700Z,84.93
2022-09-23T05:47:03.608Z,83.82
2022-09-23T05:49:55.315Z,84.25
2022-09-23T05:52:17.664Z,84.05
2022-09-23T05:54:44.509Z,84.00
2022-09-23T05:57:11.916Z,84.09
2022-09-23T05:59:38.586Z,84.42
2022-09-23T06:02:05.380Z,84.45
2022-09-23T06:04:32.080Z,84.51
2022-09-23T06:07:03.083Z,84.58
2022-09-23T06:09:35.619Z,84.68
2022-09-23T06:12:03.852Z,84.56
2022-09-23T06:14:30.530Z,84.24
2022-09-23T06:16:57.256Z,84.64
2022-09-23T06:19:24.011Z,83.66
2022-09-23T06:21:50.747Z,84.04
2022-09-23T06:24:21.352Z,84.25
2022-09-23T06:26:49.730Z,83.27
2022-09-23T06:29:18.195Z,83.59
2022-09-23T06:31:45.057Z,82.90
2022-09-23T06:34:14.183Z,82.87
2022-09-23T06:36:45.387Z,80.14
2022-09-23T06:39:13.986Z,77.26
2022-09-23T06:41:40.773Z,76.00
2022-09-23T06:44:11.973Z,73.85
2022-09-23T06:46:38.960Z,71.03
2022-09-23T06:49:05.762Z,71.20
2022-09-23T06:51:32.552Z,69.17
2022-09-23T06:53:59.344Z,68.32
2022-09-23T06:56:26.232Z,66.65
2022-09-23T06:58:53.123Z,67.21
2022-09-23T07:01:20.161Z,65.71
2022-09-23T07:03:48.454Z,64.05
2022-09-23T07:06:16.017Z,63.99
2022-09-23T07:08:45.222Z,63.05
2022-09-23T07:11:13.408Z,64.45
2022-09-23T07:13:42.330Z,61.65
2022-09-23T07:16:10.946Z,60.79
2022-09-23T07:18:38.969Z,61.66
2022-09-23T07:21:17.394Z,64.27
2022-09-23T07:23:46.317Z,62.21
2022-09-23T07:26:14.637Z,61.41
2022-09-23T07:28:41.395Z,58.19
2022-09-23T07:31:10.571Z,59.78
2022-09-23T07:33:40.484Z,57.42
2022-09-23T07:36:10.172Z,59.51
2022-09-23T07:38:42.866Z,57.97
2022-09-23T07:41:14.704Z,57.20
2022-09-23T07:43:41.573Z,56.32
2022-09-23T07:46:11.853Z,58.73
2022-09-23T07:48:39.066Z,57.59
2022-09-23T07:51:16.471Z,57.86
2022-09-23T07:53:43.318Z,56.76
2022-09-23T07:56:11.473Z,56.13
2022-09-23T07:58:38.170Z,57.13
2022-09-23T08:01:07.681Z,57.33
2022-09-23T08:03:35.425Z,59.44
2022-09-23T08:06:07.892Z,57.56
2022-09-23T08:08:35.576Z,55.85
2022-09-23T08:11:07.815Z,54.71
2022-09-23T08:13:34.565Z,52.08
2022-09-23T08:16:01.572Z,53.43
2022-09-23T08:18:28.435Z,52.56
2022-09-23T08:20:55.105Z,48.44
2022-09-23T08:23:22.033Z,51.24
2022-09-23T08:25:48.807Z,52.36
2022-09-23T08:28:18.414Z,51.12
2022-09-23T08:30:48.857Z,48.43
2022-09-23T08:33:20.987Z,49.45
2022-09-23T08:35:49.467Z,52.46
2022-09-23T08:38:16.447Z,47.33
2022-09-23T08:40:47.521Z,49.68
2022-09-23T08:43:19.255Z,48.56
2022-09-23T08:45:46.364Z,48.53
2022-09-23T08:48:17.486Z,50.15
2022-09-23T08:50:53.687Z,52.22
2022-09-23T08:53:27.714Z,53.59
2022-09-23T08:55:59.795Z,52.41
2022-09-23T08:59:03.112Z,54.71
2022-09-23T09:01:44.017Z,53.38
2022-09-23T09:04:19.821Z,51.24
2022-09-23T09:06:57.643Z,52.10
2022-09-23T09:10:11.614Z,52.14
2022-09-23T09:12:48.033Z,48.94
2022-09-23T09:15:20.789Z,50.86
2022-09-23T09:18:01.698Z,49.33
2022-09-23T09:20:45.461Z,50.93
2022-09-23T09:23:22.604Z,51.29
2022-09-23T09:25:52.581Z,53.53
2022-09-23T09:28:24.721Z,53.47
2022-09-23T09:30:56.469Z,54.81
2022-09-23T09:33:47.560Z,55.38
2022-09-23T09:36:33.156Z,54.84
2022-09-23T09:39:00.038Z,58.73
2022-09-23T09:41:31.406Z,59.38
2022-09-23T09:44:00.886Z,59.73
2022-09-23T09:46:36.721Z,60.83
2022-09-23T09:49:13.038Z,60.22
2022-09-23T09:51:42.099Z,61.05
2022-09-23T09:54:34.748Z,61.44
2022-09-23T09:57:05.627Z,61.13
2022-09-23T09:59:32.475Z,61.59
2022-09-23T10:02:24.769Z,62.53
2022-09-23T10:04:59.012Z,63.31
2022-09-23T10:07:28.775Z,62.39
2022-09-23T10:10:01.739Z,61.77
2022-09-23T10:12:45.746Z,61.63
2022-09-23T10:15:26.822Z,61.54
2022-09-23T10:17:54.396Z,59.99
2022-09-23T10:20:21.138Z,60.34
2022-09-23T10:22:48.082Z,58.79
2022-09-23T10:25:26.719Z,58.33
2022-09-23T10:27:53.760Z,58.73
2022-09-23T10:30:27.994Z,57.18
2022-09-23T10:32:56.962Z,58.46
2022-09-23T10:35:25.192Z,58.90
2022-09-23T10:37:54.277Z,57.05
2022-09-23T10:40:49.043Z,56.19
2022-09-23T10:43:46.718Z,57.23
2022-09-23T10:46:38.328Z,57.28
2022-09-23T10:49:23.950Z,55.85
2022-09-23T10:51:53.542Z,57.85
2022-09-23T10:54:58.658Z,54.79
2022-09-23T10:57:47.339Z,53.89
2022-09-23T11:00:37.914Z,55.05
2022-09-23T11:03:06.883Z,53.52
2022-09-23T11:05:56.505Z,53.63
2022-09-23T11:08:53.861Z,56.80
2022-09-23T11:11:29.983Z,56.11
2022-09-23T11:14:06.009Z,54.02
2022-09-23T11:16:54.756Z,55.08
2022-09-23T11:19:51.708Z,55.70
2022-09-23T11:22:18.395Z,54.78
2022-09-23T11:25:17.805Z,54.63
2022-09-23T11:27:53.733Z,52.34
2022-09-23T11:30:21.342Z,51.83
2022-09-23T11:36:02.930Z,53.52
2022-09-23T11:38:45.092Z,52.15
2022-09-23T11:41:31.516Z,54.36
2022-09-23T11:44:23.634Z,51.11
2022-09-23T11:46:59.558Z,52.05
2022-09-23T11:49:41.098Z,51.04
2022-09-23T11:52:24.726Z,54.15
2022-09-23T11:54:54.519Z,52.34
2022-09-23T11:57:45.966Z,50.81
2022-09-23T12:00:20.011Z,52.91
2022-09-23T12:03:06.461Z,55.48
2022-09-23T12:05:47.410Z,57.37
2022-09-23T12:08:23.693Z,57.53
2022-09-23T12:11:25.902Z,57.20
2022-09-23T12:14:15.477Z,59.00
2022-09-23T12:17:07.856Z,56.42
2022-09-23T12:19:51.707Z,56.64
2022-09-23T12:22:24.826Z,58.08
2022-09-23T12:25:10.361Z,56.35
2022-09-23T12:27:45.693Z,59.53
2022-09-23T12:30:19.764Z,60.40
2022-09-23T12:32:46.785Z,62.15
2022-09-23T12:35:32.185Z,59.54
2022-09-23T12:38:01.201Z,60.58
2022-09-23T12:40:34.881Z,58.77
2022-09-23T12:43:02.450Z,58.44
2022-09-23T12:45:33.686Z,59.21
2022-09-23T12:48:00.917Z,61.58
2022-09-23T12:51:15.897Z,59.75
2022-09-23T12:53:50.714Z,60.26
2022-09-23T12:56:23.842Z,59.63
2022-09-23T12:58:50.939Z,63.58
2022-09-23T13:01:24.677Z,64.06
2022-09-23T13:04:11.155Z,61.75
2022-09-23T13:06:42.117Z,63.22
2022-09-23T13:09:17.009Z,65.18
2022-09-23T13:11:45.633Z,65.46
2022-09-23T13:14:17.804Z,64.63
2022-09-23T13:16:45.954Z,61.34
2022-09-23T13:19:27.969Z,62.04
2022-09-23T13:21:54.693Z,64.38
2022-09-23T13:24:33.261Z,64.08
2022-09-23T13:27:02.530Z,59.64
2022-09-23T13:29:37.886Z,61.90
2022-09-23T13:32:06.319Z,62.15
2022-09-23T13:34:35.060Z,61.36
2022-09-23T13:37:22.787Z,63.94
2022-09-23T13:39:50.817Z,64.78
2022-09-23T13:42:29.514Z,65.63
2022-09-23T13:44:59.059Z,65.35
2022-09-23T13:47:28.588Z,66.14
2022-09-23T13:49:55.950Z,66.80
2022-09-23T13:52:29.944Z,68.80
2022-09-23T13:54:57.142Z,69.98
2022-09-23T13:57:33.852Z,72.66
2022-09-23T14:00:02.390Z,73.38
2022-09-23T14:02:31.135Z,74.43
2022-09-23T14:04:58.837Z,73.25
2022-09-23T14:07:26.041Z,72.61
2022-09-23T14:09:55.657Z,73.22
2022-09-23T14:12:23.163Z,73.99
2022-09-23T14:14:51.836Z,73.16
2022-09-23T14:17:22.999Z,72.66
2022-09-23T14:19:50.981Z,71.38
2022-09-23T14:22:28.464Z,73.40
2022-09-23T14:24:56.654Z,73.90
2022-09-23T14:27:28.911Z,72.62
2022-09-23T14:29:56.411Z,70.60
2022-09-23T14:32:26.888Z,70.63
2022-09-23T14:35:14.180Z,68.64
2022-09-23T14:38:03.235Z,69.56
2022-09-23T14:40:31.756Z,68.19
2022-09-23T14:42:58.490Z,64.12
2022-09-23T14:45:28.158Z,63.86
2022-09-23T14:48:07.710Z,66.37
2022-09-23T14:50:47.106Z,65.09
2022-09-23T14:53:20.078Z,66.29
2022-09-23T14:55:47.001Z,68.10
2022-09-23T14:58:18.432Z,69.86
2022-09-23T15:00:56.316Z,69.06
2022-09-23T15:03:23.636Z,71.27
2022-09-23T15:05:58.088Z,71.57
2022-09-23T15:08:27.624Z,71.04
2022-09-23T15:10:54.956Z,69.24
2022-09-23T15:13:27.277Z,69.17
2022-09-23T15:15:55.505Z,69.06
2022-09-23T15:18:24.634Z,68.22
2022-09-23T15:21:02.689Z,67.91
2022-09-23T15:23:35.445Z,66.34
2022-09-23T15:26:06.473Z,67.60
2022-09-23T15:28:33.434Z,67.66
2022-09-23T15:31:00.393Z,66.65
2022-09-23T15:33:28.279Z,66.69
2022-09-23T15:35:55.123Z,66.16
2022-09-23T15:38:22.539Z,65.17
2022-09-23T15:40:49.608Z,65.58
2022-09-23T15:43:21.209Z,65.00
2022-09-23T15:45:54.741Z,65.03
2022-09-23T15:48:25.396Z,67.66
2022-09-23T15:50:54.365Z,67.77
2022-09-23T15:53:27.360Z,70.19
2022-09-23T15:55:54.469Z,69.61
2022-09-23T15:58:22.551Z,69.55
2022-09-23T16:00:55.962Z,68.65
2022-09-23T16:03:28.579Z,68.83
2022-09-23T16:06:00.100Z,68.98
2022-09-23T16:08:27.424Z,67.33
2022-09-23T16:10:55.171Z,69.70
2022-09-23T16:13:22.173Z,70.42
2022-09-23T16:15:48.835Z,71.00
2022-09-23T16:18:15.668Z,70.47
2022-09-23T16:20:44.585Z,69.92
2022-09-23T16:23:17.250Z,72.02
2022-09-23T16:25:44.511Z,71.55
2022-09-23T16:28:11.254Z,71.04
2022-09-23T16:30:37.930Z,73.50
2022-09-23T16:33:04.745Z,72.82
2022-09-23T16:35:33.643Z,72.58
2022-09-23T16:38:00.495Z,72.72
2022-09-23T16:40:27.423Z,72.28
2022-09-23T16:42:55.926Z,72.39
2022-09-23T16:45:23.338Z,71.67
2022-09-23T16:47:51.869Z,71.72
2022-09-23T16:50:22.769Z,73.36
2022-09-23T16:52:56.315Z,71.95
2022-09-23T16:55:25.736Z,71.70
2022-09-23T16:57:53.926Z,71.74
2022-09-23T17:00:40.435Z,70.28
2022-09-23T17:03:25.795Z,70.10
2022-09-23T17:05:54.501Z,71.05
2022-09-23T17:08:21.264Z,70.76
2022-09-23T17:10:59.314Z,71.61
2022-09-23T17:13:28.076Z,72.43
2022-09-23T17:15:55.074Z,72.10
2022-09-23T17:18:22.131Z,71.08
2022-09-23T17:21:06.448Z,71.90
2022-09-23T17:23:35.569Z,72.24
2022-09-23T17:26:05.420Z,72.52
2022-09-23T17:28:32.399Z,73.67
2022-09-23T17:31:01.398Z,74.55
2022-09-23T17:33:31.021Z,73.73
2022-09-23T17:36:00.158Z,73.17
2022-09-23T17:38:29.434Z,72.88
2022-09-23T17:40:59.347Z,73.41
2022-09-23T17:43:26.034Z,72.39
2022-09-23T17:45:54.468Z,73.03
2022-09-23T17:48:24.639Z,72.28
2022-09-23T17:50:59.099Z,73.89
2022-09-23T17:53:26.217Z,72.81
2022-09-23T17:56:01.468Z,72.75
2022-09-23T17:58:30.214Z,72.84
2022-09-23T18:00:57.362Z,74.66
2022-09-23T18:03:25.690Z,75.17
2022-09-23T18:05:52.511Z,76.14
2022-09-23T18:08:19.277Z,76.09
2022-09-23T18:10:46.202Z,76.94
2022-09-23T18:13:13.248Z,77.90
2022-09-23T18:15:40.540Z,78.49
2022-09-23T18:18:07.306Z,78.98
2022-09-23T18:20:34.086Z,78.86
2022-09-23T18:23:00.812Z,78.42
2022-09-23T18:25:39.126Z,79.53
2022-09-23T18:28:06.544Z,79.11
2022-09-23T18:30:33.574Z,79.67
2022-09-23T18:33:01.628Z,79.52
2022-09-23T18:35:28.498Z,80.17
2022-09-23T18:37:56.106Z,80.25
2022-09-23T18:40:22.982Z,79.85
2022-09-23T18:42:50.354Z,79.35
2022-09-23T18:45:17.094Z,79.34
2022-09-23T18:48:02.209Z,79.73
2022-09-23T18:50:43.952Z,79.74
2022-09-23T18:53:11.166Z,79.38
2022-09-23T18:55:38.221Z,79.84
2022-09-23T18:58:07.382Z,80.22
2022-09-23T19:00:34.844Z,79.80
2022-09-23T19:03:01.972Z,78.82
2022-09-23T19:05:28.841Z,78.35
2022-09-23T19:07:55.975Z,77.95
2022-09-23T19:10:22.700Z,76.71
2022-09-23T19:12:49.381Z,76.11
2022-09-23T19:15:16.586Z,76.43
2022-09-23T19:17:43.308Z,77.58
2022-09-23T19:20:10.514Z,77.90
2022-09-23T19:22:37.223Z,78.55
2022-09-23T19:25:04.334Z,78.72
2022-09-23T19:27:31.051Z,79.14
2022-09-23T19:29:57.898Z,78.23
2022-09-23T19:32:27.093Z,77.98
2022-09-23T19:34:53.798Z,78.51
2022-09-23T19:37:21.054Z,78.83
2022-09-23T19:39:47.936Z,79.06
2022-09-23T19:42:14.753Z,79.52
2022-09-23T19:44:41.486Z,79.98
2022-09-23T19:47:15.275Z,80.10
2022-09-23T19:49:42.183Z,79.90
2022-09-23T19:52:08.866Z,80.00
2022-09-23T19:54:35.849Z,78.60
2022-09-23T19:57:02.761Z,78.13
2022-09-23T19:59:29.497Z,77.57
2022-09-23T20:01:56.227Z,75.84
2022-09-23T20:04:23.306Z,76.39
2022-09-23T20:06:50.049Z,75.83
2022-09-23T20:09:16.825Z,76.76
2022-09-23T20:11:44.239Z,76.85
2022-09-23T20:14:11.915Z,76.77
2022-09-23T20:16:38.774Z,76.88
2022-09-23T20:19:05.915Z,76.44
2022-09-23T20:21:33.842Z,76.54
2022-09-23T20:24:01.083Z,76.34
2022-09-23T20:26:46.617Z,76.99
2022-09-23T20:29:13.356Z,78.16
2022-09-23T20:31:42.973Z,78.95
2022-09-23T20:34:11.003Z,80.72
2022-09-23T20:36:39.201Z,81.12
2022-09-23T20:39:06.142Z,80.91
2022-09-23T20:41:37.201Z,79.95
2022-09-23T20:44:07.081Z,81.35
2022-09-23T20:46:34.387Z,80.70
2022-09-23T20:49:01.984Z,79.85
2022-09-23T20:51:28.822Z,78.97
2022-09-23T20:53:55.579Z,77.61
2022-09-23T20:56:23.027Z,77.88
2022-09-23T20:58:50.907Z,77.29
2022-09-23T21:01:19.050Z,76.78
2022-09-23T21:03:48.107Z,76.59
2022-09-23T21:06:17.068Z,76.04
2022-09-23T21:08:44.691Z,75.58
2022-09-23T21:11:15.004Z,75.31
2022-09-23T21:13:49.748Z,75.42
2022-09-23T21:16:19.042Z,75.48
2022-09-23T21:18:46.806Z,75.45
2022-09-23T21:21:19.307Z,75.48
2022-09-23T21:23:46.739Z,75.71
2022-09-23T21:26:19.346Z,76.52
2022-09-23T21:28:48.626Z,76.53
2022-09-23T21:31:26.996Z,76.77
2022-09-23T21:34:10.779Z,76.30
2022-09-23T21:36:41.428Z,76.32
2022-09-23T21:39:10.465Z,77.25
2022-09-23T21:41:37.949Z,77.51
2022-09-23T21:44:05.052Z,77.14
2022-09-23T21:46:35.232Z,76.83
2022-09-23T21:49:03.767Z,77.05
2022-09-23T21:51:37.762Z,77.01
2022-09-23T21:54:05.698Z,77.37
2022-09-23T21:56:35.372Z,76.80
2022-09-23T21:59:02.828Z,77.58
2022-09-23T22:01:35.198Z,77.95
2022-09-23T22:04:10.608Z,78.45
2022-09-23T22:06:38.700Z,77.39
2022-09-23T22:09:08.993Z,77.85
2022-09-23T22:11:55.393Z,77.73
2022-09-23T22:14:26.378Z,77.48
2022-09-23T22:16:59.374Z,77.91
2022-09-23T22:19:28.291Z,78.17
2022-09-23T22:21:55.925Z,78.14
2022-09-23T22:24:23.168Z,78.22
2022-09-23T22:26:50.121Z,78.89
2022-09-23T22:29:36.230Z,78.59
2022-09-23T22:32:23.960Z,79.06
2022-09-23T22:34:52.150Z,78.01
2022-09-23T22:37:27.264Z,78.39
2022-09-23T22:39:54.728Z,78.09
2022-09-23T22:42:22.534Z,78.20
2022-09-23T22:44:50.423Z,78.44
2022-09-23T22:47:18.107Z,78.49
2022-09-23T22:49:46.094Z,78.16
2022-09-23T22:52:14.977Z,78.28
2022-09-23T22:54:42.175Z,77.89
2022-09-23T22:57:09.691Z,78.15
2022-09-23T22:59:37.532Z,78.15
2022-09-23T23:02:07.725Z,77.75
2022-09-23T23:04:34.766Z,78.16
2022-09-23T23:07:02.692Z,78.44
2022-09-23T23:09:29.359Z,78.49
2022-09-23T23:11:56.009Z,78.89
2022-09-23T23:14:22.821Z,78.49
2022-09-23T23:16:49.647Z,78.51
2022-09-23T23:19:19.226Z,78.46
2022-09-23T23:21:46.994Z,79.08
2022-09-23T23:24:16.048Z,78.73
2022-09-23T23:26:43.092Z,79.44
2022-09-23T23:29:11.851Z,79.04
2022-09-23T23:31:38.889Z,79.66
2022-09-23T23:34:08.364Z,79.48
2022-09-23T23:36:35.185Z,79.26
2022-09-23T23:39:02.148Z,79.09
2022-09-23T23:41:29.067Z,79.77
2022-09-23T23:43:58.614Z,79.57
2022-09-23T23:46:27.555Z,79.86
2022-09-23T23:48:55.770Z,80.36
2022-09-23T23:51:24.456Z,80.14
2022-09-23T23:53:53.196Z,79.74
2022-09-23T23:56:22.302Z,79.34
2022-09-23T23:58:56.848Z,79.98
